Terminal Aerodrome Forecast
Issued by NWS

Home | Current Version | Previous Version | Text Only | Print | Product List | Glossary On
Versions: 1 2 3 4 5 6 7 8 9 10 11 12 13 14 15 16 17 18 19 20 21 22 23 24 25 26
000
FTUS46 KMFR 250541
TAFOTH
TAF
KOTH 250541Z 2506/2606 14006KT 6SM BR SCT002
      TEMPO 2506/2508 5SM BR BKN002
     FM250800 14005KT 4SM BR BKN002
     FM251200 14005KT 2SM BR BKN002 BKN060
     FM251700 16008KT P6SM -RA SCT020 OVC040=

USA.gov is the U.S. government's official web portal to all federal, state and local government web resources and services.